As Olivia — DYQC — position and weather

sailwx.info

Track history (hours):
 
Tides and Currents Weather Stations Pressure Air Temp Water Temp Dewpoint Dewpoint Depression Visibility Wind Speed Wind Dir Waves Ship Positions

As Olivia

Last reported at 2017-May-26 23:47 UTC. Time now 2017-May-27 23:09 UTC.
Position N 31°03' E 032°19'.

Length 146 m; draft 9.5 m.

Type: Tanker. MMSI: 548767000.

Date/timePositionNaut miles runAvg speedWind from/ knotsBaromVisibWave heightAir tempDewpointWater temp
2017-May-26 23:47N 31°03' E 032°19'3 9.5
2017-May-26 23:30N 31°06' E 032°19'5 9.4
2017-May-26 23:00N 31°10' E 032°20'3 6.4
2017-May-26 22:30N 31°13' E 032°21'4 6.6
2017-May-26 21:50N 31°18' E 032°22'510.0
2017-May-26 21:22N 31°22' E 032°23'4 0.7
2017-May-26 16:03N 31°22' E 032°19'0 0.0
2017-May-26 16:00N 31°22' E 032°19'0 0.0
2017-May-26 14:15N 31°22' E 032°19'0 0.0
2017-May-26 12:21N 31°22' E 032°19'0 0.1
2017-May-26 11:02N 31°22' E 032°19'0 0.1
2017-May-26 10:57N 31°22' E 032°19'  
2017-May-23 13:54N 36°57' E 016°07'512.8
2017-May-23 13:30N 36°60' E 016°01'612.6
2017-May-23 13:00N 37°02' E 015°54'612.6
2017-May-23 12:30N 37°05' E 015°47'612.3
2017-May-23 12:00N 37°07' E 015°40'  
2017-May-21 00:42N 36°23' E 014°48'213.3
2017-May-21 00:30N 36°23' E 014°45'713.2
2017-May-21 00:00N 36°23' E 014°36'713.7
2017-May-20 23:31N 36°25' E 014°28'713.5
2017-May-20 23:00N 36°27' E 014°20'713.3
2017-May-20 22:30N 36°29' E 014°12'713.3
2017-May-20 22:00N 36°31' E 014°05'713.2
2017-May-20 21:30N 36°33' E 013°57'713.2
2017-May-20 21:00N 36°35' E 013°48'1413.3
2017-May-20 19:57N 36°39' E 013°32'613.1
2017-May-20 19:30N 36°41' E 013°25'813.2
2017-May-20 18:54N 36°44' E 013°16'713.4
2017-May-20 18:24N 36°46' E 013°08'513.3
2017-May-20 18:00N 36°48' E 013°02'713.2
2017-May-20 17:26N 36°50' E 012°53'21213.1
2017-May-20 01:15N 37°49' E 008°37'713.5
2017-May-20 00:43N 37°48' E 008°28'313.1
2017-May-20 00:29N 37°48' E 008°24'813.2
2017-May-19 23:51N 37°47' E 008°13'513.2
2017-May-19 23:30N 37°46' E 008°07'713.0
2017-May-19 22:59N 37°45' E 007°59'913.2
2017-May-19 22:16N 37°44' E 007°47'413.0
2017-May-19 22:00N 37°44' E 007°43'612.9
2017-May-19 21:30N 37°43' E 007°35'712.9
2017-May-19 20:58N 37°42' E 007°26'613.1
2017-May-19 20:29N 37°42' E 007°18'713.3
2017-May-19 19:58N 37°41' E 007°09'813.2
2017-May-19 19:22N 37°40' E 006°60'613.1
2017-May-19 18:56N 37°40' E 006°52'33413.2
2017-May-18 17:41N 36°34' E 000°01'614.0
2017-May-18 17:15N 36°33' W 000°06'514.0
2017-May-18 16:53N 36°32' W 000°12'1514.1
2017-May-18 15:48N 36°28' W 000°31'713.9
2017-May-18 15:16N 36°26' W 000°40'21913.4
2017-May-17 22:57N 36°01' W 005°10'613.6
2017-May-17 22:30N 35°60' W 005°17'815.6
2017-May-17 22:00N 35°57' W 005°26'815.3
2017-May-17 21:29N 35°55' W 005°36'714.3
2017-May-17 20:59N 35°55' W 005°45'714.1
2017-May-17 20:30N 35°55' W 005°53'15512.7
2017-May-17 08:19N 36°26' W 009°00'412.7
2017-May-17 07:59N 36°27' W 009°06'612.8
2017-May-17 07:30N 36°28' W 009°13'612.5
2017-May-17 07:00N 36°30' W 009°20'1212.6
2017-May-17 06:02N 36°39' W 009°31'012.6
2017-May-17 06:00N 36°39' W 009°31'612.9
2017-May-17 05:30N 36°44' W 009°37'612.6
2017-May-17 05:00N 36°50' W 009°40'612.9
2017-May-17 04:30N 36°56' W 009°42'712.8
2017-May-17 03:59N 37°02' W 009°44'612.8
2017-May-17 03:30N 37°08' W 009°45'612.9
2017-May-17 03:00N 37°15' W 009°47'612.8
2017-May-17 02:30N 37°21' W 009°49'613.0
2017-May-17 02:00N 37°27' W 009°50'612.8
2017-May-17 01:30N 37°34' W 009°52'612.7
2017-May-17 01:00N 37°40' W 009°54'713.0
2017-May-17 00:30N 37°46' W 009°56'612.7
2017-May-17 00:00N 37°52' W 009°58'  
Track history (hours):
 
Tides and Currents Weather Stations Pressure Air Temp Water Temp Dewpoint Dewpoint Depression Visibility Wind Speed Wind Dir Waves Ship Positions

As Olivia

Last reported at 2017-May-26 23:47 UTC. Time now 2017-May-27 23:09 UTC.
Position N 31°03' E 032°19'.

Length 146 m; draft 9.5 m.

Type: Tanker. MMSI: 548767000.

Date/timePositionNaut miles runAvg speedWind from/ knotsBaromVisibWave heightAir tempDewpointWater temp
2017-May-26 23:47N 31°03' E 032°19'3 9.5
2017-May-26 23:30N 31°06' E 032°19'5 9.4
2017-May-26 23:00N 31°10' E 032°20'3 6.4
2017-May-26 22:30N 31°13' E 032°21'4 6.6
2017-May-26 21:50N 31°18' E 032°22'510.0
2017-May-26 21:22N 31°22' E 032°23'4 0.7
2017-May-26 16:03N 31°22' E 032°19'0 0.0
2017-May-26 16:00N 31°22' E 032°19'0 0.0
2017-May-26 14:15N 31°22' E 032°19'0 0.0
2017-May-26 12:21N 31°22' E 032°19'0 0.1
2017-May-26 11:02N 31°22' E 032°19'0 0.1
2017-May-26 10:57N 31°22' E 032°19'  
2017-May-23 13:54N 36°57' E 016°07'512.8
2017-May-23 13:30N 36°60' E 016°01'612.6
2017-May-23 13:00N 37°02' E 015°54'612.6
2017-May-23 12:30N 37°05' E 015°47'612.3
2017-May-23 12:00N 37°07' E 015°40'  
2017-May-21 00:42N 36°23' E 014°48'213.3
2017-May-21 00:30N 36°23' E 014°45'713.2
2017-May-21 00:00N 36°23' E 014°36'713.7
2017-May-20 23:31N 36°25' E 014°28'713.5
2017-May-20 23:00N 36°27' E 014°20'713.3
2017-May-20 22:30N 36°29' E 014°12'713.3
2017-May-20 22:00N 36°31' E 014°05'713.2
2017-May-20 21:30N 36°33' E 013°57'713.2
2017-May-20 21:00N 36°35' E 013°48'1413.3
2017-May-20 19:57N 36°39' E 013°32'613.1
2017-May-20 19:30N 36°41' E 013°25'813.2
2017-May-20 18:54N 36°44' E 013°16'713.4
2017-May-20 18:24N 36°46' E 013°08'513.3
2017-May-20 18:00N 36°48' E 013°02'713.2
2017-May-20 17:26N 36°50' E 012°53'21213.1
2017-May-20 01:15N 37°49' E 008°37'713.5
2017-May-20 00:43N 37°48' E 008°28'313.1
2017-May-20 00:29N 37°48' E 008°24'813.2
2017-May-19 23:51N 37°47' E 008°13'513.2
2017-May-19 23:30N 37°46' E 008°07'713.0
2017-May-19 22:59N 37°45' E 007°59'913.2
2017-May-19 22:16N 37°44' E 007°47'413.0
2017-May-19 22:00N 37°44' E 007°43'612.9
2017-May-19 21:30N 37°43' E 007°35'712.9
2017-May-19 20:58N 37°42' E 007°26'613.1
2017-May-19 20:29N 37°42' E 007°18'713.3
2017-May-19 19:58N 37°41' E 007°09'813.2
2017-May-19 19:22N 37°40' E 006°60'613.1
2017-May-19 18:56N 37°40' E 006°52'33413.2
2017-May-18 17:41N 36°34' E 000°01'614.0
2017-May-18 17:15N 36°33' W 000°06'514.0
2017-May-18 16:53N 36°32' W 000°12'1514.1
2017-May-18 15:48N 36°28' W 000°31'713.9
2017-May-18 15:16N 36°26' W 000°40'21913.4
2017-May-17 22:57N 36°01' W 005°10'613.6
2017-May-17 22:30N 35°60' W 005°17'815.6
2017-May-17 22:00N 35°57' W 005°26'815.3
2017-May-17 21:29N 35°55' W 005°36'714.3
2017-May-17 20:59N 35°55' W 005°45'714.1
2017-May-17 20:30N 35°55' W 005°53'15512.7
2017-May-17 08:19N 36°26' W 009°00'412.7
2017-May-17 07:59N 36°27' W 009°06'612.8
2017-May-17 07:30N 36°28' W 009°13'612.5
2017-May-17 07:00N 36°30' W 009°20'1212.6
2017-May-17 06:02N 36°39' W 009°31'012.6
2017-May-17 06:00N 36°39' W 009°31'612.9
2017-May-17 05:30N 36°44' W 009°37'612.6
2017-May-17 05:00N 36°50' W 009°40'612.9
2017-May-17 04:30N 36°56' W 009°42'712.8
2017-May-17 03:59N 37°02' W 009°44'612.8
2017-May-17 03:30N 37°08' W 009°45'612.9
2017-May-17 03:00N 37°15' W 009°47'612.8
2017-May-17 02:30N 37°21' W 009°49'613.0
2017-May-17 02:00N 37°27' W 009°50'612.8
2017-May-17 01:30N 37°34' W 009°52'612.7
2017-May-17 01:00N 37°40' W 009°54'713.0
2017-May-17 00:30N 37°46' W 009°56'612.7
2017-May-17 00:00N 37°52' W 009°58'  

Dump ship's entire track history